Time;durP1;ratioP1;P1;durP2;ratioP2;P2;SDS_P1;SDS_P2;PMS_P1;PMS_P2;Temp;Humidity;BMP_temperature;BMP_pressure;BME280_temperature;BME280_humidity;BME280_pressure;Samples;Min_cycle;Max_cycle;Signal;HPM_P1;HPM_P2
2023/08/19 00:01:32;;;;;;;21.88;19.45;;;21.60;99.90;;;;;;5086252;28;20058;-60
2023/08/19 00:03:59;;;;;;;23.58;19.63;;;21.60;99.90;;;;;;5103697;27;20050;-60
2023/08/19 00:06:36;;;;;;;26.13;19.98;;;21.60;99.90;;;;;;5103328;28;20482;-60
2023/08/19 00:09:04;;;;;;;24.20;19.75;;;21.60;99.90;;;;;;5102343;28;20116;-58
2023/08/19 00:11:34;;;;;;;20.77;18.58;;;21.60;99.90;;;;;;5104930;27;20039;-60
2023/08/19 00:14:00;;;;;;;23.92;19.52;;;21.60;99.90;;;;;;5102555;27;20117;-58
2023/08/19 00:16:26;;;;;;;23.38;19.05;;;21.50;99.90;;;;;;5103956;28;20051;-58
2023/08/19 00:18:52;;;;;;;23.73;19.17;;;21.50;99.90;;;;;;5104680;28;20125;-58
2023/08/19 00:21:18;;;;;;;22.58;19.85;;;21.50;99.90;;;;;;5104383;28;20043;-60
2023/08/19 00:23:44;;;;;;;21.05;18.83;;;21.50;99.90;;;;;;5105051;28;20066;-60
2023/08/19 00:26:12;;;;;;;20.65;18.35;;;21.50;99.90;;;;;;5102399;28;20040;-59
2023/08/19 00:28:39;;;;;;;21.33;18.92;;;21.50;99.90;;;;;;5103413;28;20040;-59
2023/08/19 00:31:05;;;;;;;21.17;18.38;;;21.50;99.90;;;;;;5102665;28;20044;-56
2023/08/19 00:33:31;;;;;;;22.75;18.85;;;21.50;99.90;;;;;;5074186;28;20060;-60
2023/08/19 00:35:57;;;;;;;22.40;19.30;;;21.50;99.90;;;;;;5075151;28;20124;-60
2023/08/19 00:38:22;;;;;;;21.23;18.45;;;21.50;99.90;;;;;;5103601;28;20065;-58
2023/08/19 00:40:48;;;;;;;25.92;18.50;;;21.50;99.90;;;;;;5103922;28;20444;-60
2023/08/19 00:43:14;;;;;;;23.80;18.98;;;21.50;99.90;;;;;;5069801;28;20051;-59
2023/08/19 00:45:44;;;;;;;20.70;18.42;;;21.50;99.90;;;;;;5104971;28;20040;-60
2023/08/19 00:48:11;;;;;;;21.38;17.95;;;21.50;99.90;;;;;;5103938;28;20542;-59
2023/08/19 00:50:38;;;;;;;22.13;17.80;;;21.50;99.90;;;;;;5104012;28;20532;-57
2023/08/19 00:53:04;;;;;;;23.75;19.58;;;21.50;99.90;;;;;;5083998;28;20043;-60
2023/08/19 00:55:30;;;;;;;19.95;17.73;;;21.50;99.90;;;;;;5101860;28;20541;-57
2023/08/19 00:58:01;;;;;;;20.98;18.08;;;21.50;99.90;;;;;;5102067;28;20075;-59
2023/08/19 01:00:30;;;;;;;20.95;18.75;;;21.50;99.90;;;;;;5103166;28;20119;-60
2023/08/19 01:02:55;;;;;;;20.20;18.05;;;21.50;99.90;;;;;;5100781;28;20067;-58
2023/08/19 01:05:30;;;;;;;21.27;18.10;;;21.40;99.90;;;;;;5084045;28;20474;-60
2023/08/19 01:08:00;;;;;;;20.55;17.60;;;21.50;99.90;;;;;;5094493;28;20120;-59
2023/08/19 01:11:12;;;;;;;26.20;18.77;;;21.50;99.90;;;;;;5105240;28;20443;-59
2023/08/19 01:13:54;;;;;;;23.43;19.00;;;21.40;99.90;;;;;;5105827;28;20044;-59
2023/08/19 01:16:29;;;;;;;22.63;18.00;;;21.40;99.90;;;;;;5104510;28;20044;-59
2023/08/19 01:18:56;;;;;;;20.55;18.45;;;21.40;99.90;;;;;;5103312;28;20321;-59
2023/08/19 01:21:22;;;;;;;26.95;18.05;;;21.40;99.90;;;;;;5104878;28;20082;-59
2023/08/19 01:23:51;;;;;;;21.10;18.83;;;21.40;99.90;;;;;;5105252;28;20055;-59
2023/08/19 01:26:17;;;;;;;22.05;18.73;;;21.40;99.90;;;;;;5103805;28;20043;-59
2023/08/19 01:28:43;;;;;;;22.73;18.85;;;21.40;99.90;;;;;;5106518;28;20079;-60
2023/08/19 01:31:09;;;;;;;22.05;18.40;;;21.40;99.90;;;;;;5103912;28;20070;-59
2023/08/19 01:33:35;;;;;;;20.60;18.40;;;21.40;99.90;;;;;;5105615;28;20083;-58
2023/08/19 01:36:31;;;;;;;23.25;17.73;;;21.30;99.90;;;;;;5104282;28;20043;-58
2023/08/19 01:39:08;;;;;;;23.17;17.70;;;21.30;99.90;;;;;;5107351;28;20126;-59
2023/08/19 01:41:34;;;;;;;19.58;17.58;;;21.30;99.90;;;;;;5107104;27;20465;-59
2023/08/19 01:44:01;;;;;;;25.58;20.90;;;21.30;99.90;;;;;;5108103;27;20058;-59
2023/08/19 01:46:27;;;;;;;20.75;18.27;;;21.30;99.90;;;;;;5107712;27;20067;-59
2023/08/19 01:48:54;;;;;;;24.08;19.05;;;21.30;99.90;;;;;;5088244;28;20087;-59
2023/08/19 01:51:20;;;;;;;21.50;19.10;;;21.30;99.90;;;;;;5105916;28;20106;-59
2023/08/19 01:53:46;;;;;;;22.63;19.65;;;21.30;99.90;;;;;;5105479;28;20027;-59
2023/08/19 01:56:12;;;;;;;23.85;20.17;;;21.30;99.90;;;;;;5104873;27;20179;-59
2023/08/19 01:58:37;;;;;;;22.77;19.40;;;21.30;99.90;;;;;;5107578;27;20091;-58
2023/08/19 02:01:03;;;;;;;24.05;20.27;;;21.30;99.90;;;;;;5106581;27;20068;-59
2023/08/19 02:03:29;;;;;;;22.20;18.70;;;21.30;99.90;;;;;;5106727;27;20068;-59
2023/08/19 02:05:55;;;;;;;23.48;18.70;;;21.30;99.90;;;;;;5107379;28;20131;-59
2023/08/19 02:08:21;;;;;;;23.10;19.95;;;21.30;99.90;;;;;;5108844;27;20062;-59
2023/08/19 02:10:47;;;;;;;27.20;20.08;;;21.30;99.90;;;;;;5107509;27;20084;-59
2023/08/19 02:13:12;;;;;;;22.48;19.02;;;21.30;99.90;;;;;;5106264;28;20035;-59
2023/08/19 02:15:38;;;;;;;23.40;19.13;;;21.30;99.90;;;;;;5107119;27;20046;-58
2023/08/19 02:18:04;;;;;;;22.25;19.33;;;21.30;99.90;;;;;;5107312;27;20036;-59
2023/08/19 02:20:30;;;;;;;22.35;19.15;;;21.30;99.90;;;;;;5107456;27;20027;-58
2023/08/19 02:22:58;;;;;;;22.17;19.35;;;21.30;99.90;;;;;;5107261;27;20534;-59
2023/08/19 02:25:24;;;;;;;22.95;20.08;;;21.30;99.90;;;;;;5104764;27;20047;-59
2023/08/19 02:27:50;;;;;;;28.60;20.10;;;21.30;99.90;;;;;;5105454;28;20032;-59
2023/08/19 02:30:15;;;;;;;23.35;19.73;;;21.30;99.90;;;;;;5106573;27;20031;-59
2023/08/19 02:32:41;;;;;;;23.48;19.48;;;21.20;99.90;;;;;;5107505;27;20054;-59
2023/08/19 02:35:08;;;;;;;22.48;19.23;;;21.20;99.90;;;;;;5105819;27;20035;-59
2023/08/19 02:37:34;;;;;;;24.90;18.75;;;21.30;99.90;;;;;;5106717;28;20044;-58
2023/08/19 02:40:00;;;;;;;26.65;19.83;;;21.20;99.90;;;;;;5107469;27;20052;-59
2023/08/19 02:42:26;;;;;;;22.35;19.48;;;21.30;99.90;;;;;;5105456;27;20075;-59
2023/08/19 02:44:52;;;;;;;21.25;18.95;;;21.30;99.90;;;;;;5106741;27;20478;-60
2023/08/19 02:47:17;;;;;;;22.05;19.52;;;21.20;99.90;;;;;;5106761;27;20048;-59
2023/08/19 02:49:43;;;;;;;24.52;19.83;;;21.30;99.90;;;;;;5087815;28;20052;-58
2023/08/19 02:52:09;;;;;;;26.42;19.42;;;21.30;99.90;;;;;;5088167;28;20508;-59
2023/08/19 02:54:35;;;;;;;24.00;19.55;;;21.30;99.90;;;;;;5103218;28;20089;-59
2023/08/19 02:57:02;;;;;;;23.63;20.75;;;21.20;99.90;;;;;;5105815;28;20036;-59
2023/08/19 02:59:27;;;;;;;22.85;20.30;;;21.20;99.90;;;;;;5104927;27;20050;-57
2023/08/19 03:01:53;;;;;;;21.88;19.48;;;21.20;99.90;;;;;;5106822;28;20043;-58
2023/08/19 03:04:19;;;;;;;25.70;20.45;;;21.20;99.90;;;;;;5103883;28;20032;-58
2023/08/19 03:06:45;;;;;;;23.77;19.88;;;21.20;99.90;;;;;;5102611;28;20084;-59
2023/08/19 03:09:11;;;;;;;26.83;20.52;;;21.20;99.90;;;;;;5086674;27;20043;-60
2023/08/19 03:11:37;;;;;;;22.95;19.42;;;21.20;99.90;;;;;;5105161;27;20043;-60
2023/08/19 03:14:02;;;;;;;24.60;19.48;;;21.20;99.90;;;;;;5104489;28;20036;-60
2023/08/19 03:16:28;;;;;;;24.75;19.65;;;21.10;99.90;;;;;;5106307;28;20038;-58
2023/08/19 03:18:54;;;;;;;24.08;20.05;;;21.10;99.90;;;;;;5055293;28;20043;-60
2023/08/19 03:21:20;;;;;;;26.17;20.70;;;21.10;99.90;;;;;;5105597;28;20585;-59
2023/08/19 03:23:45;;;;;;;22.15;19.40;;;21.10;99.90;;;;;;5068830;28;20039;-60
2023/08/19 03:26:11;;;;;;;23.63;20.35;;;21.10;99.90;;;;;;5104615;28;20499;-57
2023/08/19 03:28:37;;;;;;;23.38;20.30;;;21.10;99.90;;;;;;5103326;28;20038;-60
2023/08/19 03:31:10;;;;;;;21.92;19.63;;;21.10;99.90;;;;;;5103115;28;20493;-58
2023/08/19 03:33:38;;;;;;;22.10;18.83;;;21.10;99.90;;;;;;5070168;28;20044;-59
2023/08/19 03:36:04;;;;;;;24.73;19.75;;;21.10;99.90;;;;;;5086664;28;20039;-59
2023/08/19 03:38:30;;;;;;;21.98;19.00;;;21.10;99.90;;;;;;5099074;28;20056;-59
2023/08/19 03:40:56;;;;;;;22.80;19.75;;;21.10;99.90;;;;;;5066145;28;20049;-60
2023/08/19 03:43:22;;;;;;;22.85;18.85;;;21.10;99.90;;;;;;5064652;28;20051;-58
2023/08/19 03:45:47;;;;;;;26.05;19.35;;;21.10;99.90;;;;;;5085658;28;20047;-58
2023/08/19 03:48:13;;;;;;;21.60;18.95;;;21.10;99.90;;;;;;5088588;28;20051;-60
2023/08/19 03:50:39;;;;;;;28.48;18.75;;;21.10;99.90;;;;;;5084192;28;20044;-57
2023/08/19 03:53:05;;;;;;;24.13;19.42;;;21.10;99.90;;;;;;5087555;28;20032;-60
2023/08/19 03:55:31;;;;;;;23.63;18.30;;;21.10;99.90;;;;;;5084245;28;20291;-58
2023/08/19 03:57:56;;;;;;;24.63;18.90;;;21.10;99.90;;;;;;5068106;28;20047;-59
2023/08/19 04:00:22;;;;;;;23.73;17.85;;;21.10;99.90;;;;;;5086084;28;20040;-60
2023/08/19 04:02:48;;;;;;;22.85;18.75;;;21.10;99.90;;;;;;5085786;28;20047;-59
2023/08/19 04:05:14;;;;;;;20.63;18.23;;;21.10;99.90;;;;;;5087364;28;20040;-59
2023/08/19 04:07:40;;;;;;;23.80;18.08;;;21.10;99.90;;;;;;5084840;28;20032;-57
2023/08/19 04:10:07;;;;;;;23.13;18.55;;;21.10;99.90;;;;;;5084419;28;20058;-60
2023/08/19 04:12:33;;;;;;;26.25;18.52;;;21.10;99.90;;;;;;5084925;28;20156;-59
2023/08/19 04:14:59;;;;;;;25.10;18.17;;;21.10;99.90;;;;;;5087550;28;20443;-57
2023/08/19 04:17:25;;;;;;;20.58;17.60;;;21.10;99.90;;;;;;5086173;28;20043;-59
2023/08/19 04:19:51;;;;;;;21.63;18.20;;;21.10;99.90;;;;;;5087621;28;20037;-59
2023/08/19 04:22:17;;;;;;;22.45;16.83;;;21.10;99.90;;;;;;5084242;28;20051;-59
2023/08/19 04:24:50;;;;;;;22.70;17.02;;;21.10;99.90;;;;;;5085370;28;20063;-60
2023/08/19 04:27:15;;;;;;;;;;;21.20;99.90;;;;;;5086479;28;20056;-59
2023/08/19 04:29:41;;;;;;;18.40;16.48;;;21.10;99.90;;;;;;5084539;28;19916;-58
2023/08/19 04:32:07;;;;;;;22.67;17.75;;;21.10;99.90;;;;;;5086521;28;20052;-60
2023/08/19 04:34:33;;;;;;;19.90;16.67;;;21.20;99.90;;;;;;5085968;28;20105;-60
2023/08/19 04:36:58;;;;;;;21.25;17.38;;;21.20;99.90;;;;;;5084972;28;20048;-57
2023/08/19 04:39:24;;;;;;;19.30;16.80;;;21.20;99.90;;;;;;5095262;28;20036;-60
2023/08/19 04:41:50;;;;;;;19.13;16.13;;;21.20;99.90;;;;;;5104826;28;20246;-59
2023/08/19 04:44:16;;;;;;;19.58;16.45;;;21.20;99.90;;;;;;5106293;28;20055;-56
2023/08/19 04:46:42;;;;;;;21.25;15.95;;;21.20;99.90;;;;;;5105457;28;20036;-59
2023/08/19 04:49:08;;;;;;;20.58;16.60;;;21.20;99.90;;;;;;5105854;28;20554;-60
2023/08/19 04:51:34;;;;;;;19.33;16.33;;;21.20;99.90;;;;;;5103860;28;20040;-58
2023/08/19 04:54:00;;;;;;;25.27;16.13;;;21.20;99.90;;;;;;5104728;28;20043;-60
2023/08/19 04:56:26;;;;;;;18.52;15.80;;;21.20;99.90;;;;;;5085831;28;20099;-59
2023/08/19 04:58:51;;;;;;;17.33;15.27;;;21.20;99.90;;;;;;5103088;28;20081;-57
2023/08/19 05:01:17;;;;;;;24.25;15.73;;;21.20;99.90;;;;;;5103962;28;20063;-60
2023/08/19 05:03:43;;;;;;;22.98;15.27;;;21.30;99.90;;;;;;5085605;28;20039;-57
2023/08/19 05:06:09;;;;;;;16.63;14.50;;;21.20;99.90;;;;;;5104545;28;20100;-59
2023/08/19 05:08:35;;;;;;;16.98;14.57;;;21.30;99.90;;;;;;5103422;28;20047;-59
2023/08/19 05:11:01;;;;;;;17.10;14.13;;;21.20;99.90;;;;;;5104062;28;20117;-60
2023/08/19 05:13:26;;;;;;;15.20;13.32;;;21.30;99.90;;;;;;5108244;27;20395;-60
2023/08/19 05:15:52;;;;;;;17.25;13.75;;;21.30;99.90;;;;;;5089357;28;20031;-59
2023/08/19 05:18:18;;;;;;;18.83;13.93;;;21.30;99.90;;;;;;5108008;28;20046;-60
2023/08/19 05:20:43;;;;;;;22.02;14.23;;;21.30;99.90;;;;;;5107666;27;20067;-59
2023/08/19 05:23:09;;;;;;;15.68;13.52;;;21.30;99.90;;;;;;5107214;27;20042;-60
2023/08/19 05:25:35;;;;;;;18.52;12.88;;;21.40;99.90;;;;;;5106161;27;20031;-57
2023/08/19 05:28:01;;;;;;;18.73;13.65;;;21.40;99.90;;;;;;5106581;27;20461;-60
2023/08/19 05:30:26;;;;;;;18.67;13.25;;;21.40;99.90;;;;;;5087248;28;20039;-58
2023/08/19 05:32:52;;;;;;;16.70;13.10;;;21.40;99.90;;;;;;5106394;28;20051;-59
2023/08/19 05:35:18;;;;;;;15.27;12.88;;;21.50;99.90;;;;;;5089449;28;20055;-59
2023/08/19 05:37:43;;;;;;;17.65;13.52;;;21.50;99.90;;;;;;5106231;27;20427;-59
2023/08/19 05:40:09;;;;;;;15.18;12.00;;;21.40;99.90;;;;;;5087371;28;20073;-59
2023/08/19 05:42:35;;;;;;;13.98;12.30;;;21.40;99.90;;;;;;5089573;28;20051;-59
2023/08/19 05:45:01;;;;;;;13.88;12.35;;;21.50;99.90;;;;;;5104543;27;20595;-59
2023/08/19 05:47:27;;;;;;;15.25;12.75;;;21.50;99.90;;;;;;5109054;28;20075;-59
2023/08/19 05:49:53;;;;;;;18.33;13.20;;;21.50;99.90;;;;;;5106534;27;20065;-59
2023/08/19 05:52:18;;;;;;;16.15;12.88;;;21.60;99.90;;;;;;5086979;28;20060;-60
2023/08/19 05:54:44;;;;;;;14.40;12.82;;;21.60;99.90;;;;;;5107276;27;20069;-59
2023/08/19 05:57:10;;;;;;;15.23;12.50;;;21.60;99.90;;;;;;5106376;28;20023;-58
2023/08/19 05:59:35;;;;;;;14.32;12.82;;;21.70;99.90;;;;;;5087895;28;20507;-59
2023/08/19 06:02:01;;;;;;;14.38;12.32;;;21.70;99.90;;;;;;5105780;27;20138;-60
2023/08/19 06:04:27;;;;;;;14.98;12.80;;;21.70;99.90;;;;;;5105071;28;20105;-60
2023/08/19 06:06:53;;;;;;;16.83;12.57;;;21.80;99.90;;;;;;5105909;28;20510;-59
2023/08/19 06:09:18;;;;;;;13.50;11.80;;;21.80;99.90;;;;;;5105800;27;20095;-58
2023/08/19 06:11:49;;;;;;;15.40;11.98;;;21.80;99.90;;;;;;5106724;28;20111;-56
2023/08/19 06:14:15;;;;;;;15.70;12.50;;;21.80;99.90;;;;;;5109437;28;20121;-57
2023/08/19 06:16:42;;;;;;;19.55;11.90;;;21.80;99.90;;;;;;5095340;28;20032;-60
2023/08/19 06:19:07;;;;;;;14.25;11.70;;;21.90;99.90;;;;;;5086832;28;20118;-58
2023/08/19 06:21:33;;;;;;;15.98;11.82;;;21.90;99.90;;;;;;5106851;27;20075;-59
2023/08/19 06:23:59;;;;;;;14.00;10.65;;;21.90;99.90;;;;;;5104516;27;20108;-59
2023/08/19 06:26:28;;;;;;;15.55;11.50;;;22.00;99.90;;;;;;5107312;28;20146;-58
2023/08/19 06:28:53;;;;;;;12.38;10.52;;;22.00;99.90;;;;;;5106868;28;20048;-59
2023/08/19 06:31:19;;;;;;;12.35;10.93;;;22.00;99.90;;;;;;5105183;27;20071;-60
2023/08/19 06:33:46;;;;;;;13.02;10.98;;;22.10;99.90;;;;;;5106007;27;20032;-59
2023/08/19 06:36:16;;;;;;;15.02;10.68;;;22.10;99.90;;;;;;5104307;28;20043;-60
2023/08/19 06:38:47;;;;;;;16.77;10.18;;;22.20;99.90;;;;;;5104517;27;20089;-60
2023/08/19 06:41:13;;;;;;;14.50;10.55;;;22.20;99.90;;;;;;5086226;28;20498;-58
2023/08/19 06:43:40;;;;;;;15.02;10.23;;;22.20;99.90;;;;;;5106768;27;20077;-60
2023/08/19 06:46:07;;;;;;;12.95;9.68;;;22.20;99.90;;;;;;5104282;28;20047;-59
2023/08/19 06:48:34;;;;;;;11.68;9.90;;;22.20;99.90;;;;;;5086937;28;20044;-60
2023/08/19 06:51:01;;;;;;;12.60;10.35;;;22.20;99.90;;;;;;5105497;28;20100;-59
2023/08/19 06:53:28;;;;;;;10.85;9.60;;;22.20;99.90;;;;;;5088764;28;20054;-60
2023/08/19 06:56:18;;;;;;;14.15;10.00;;;22.30;99.90;;;;;;5105716;27;20043;-59
2023/08/19 06:58:48;;;;;;;15.57;9.48;;;22.30;99.90;;;;;;5106769;27;20108;-57
2023/08/19 07:01:24;;;;;;;15.27;9.40;;;22.30;99.90;;;;;;5106948;28;20055;-60
2023/08/19 07:03:54;;;;;;;13.57;9.52;;;22.30;99.90;;;;;;5107440;27;20092;-60
2023/08/19 07:06:20;;;;;;;12.95;9.32;;;22.30;99.90;;;;;;5104404;28;20036;-60
2023/08/19 07:08:47;;;;;;;12.75;9.07;;;22.30;99.90;;;;;;5107349;28;20066;-58
2023/08/19 07:11:15;;;;;;;12.35;8.68;;;22.30;99.90;;;;;;5105371;27;20123;-60
2023/08/19 07:13:41;;;;;;;10.48;8.48;;;22.30;99.90;;;;;;5093651;28;20032;-59
2023/08/19 07:16:10;;;;;;;16.65;9.18;;;22.30;99.90;;;;;;5106413;28;20047;-59
2023/08/19 07:18:42;;;;;;;12.38;9.02;;;22.40;99.90;;;;;;5107846;27;20181;-60
2023/08/19 07:21:13;;;;;;;14.30;8.93;;;22.40;99.90;;;;;;5072244;28;20102;-60
2023/08/19 07:23:41;;;;;;;15.13;9.65;;;22.40;99.90;;;;;;5107410;28;20054;-60
2023/08/19 07:26:09;;;;;;;10.27;9.13;;;22.50;99.90;;;;;;5087231;28;20605;-57
2023/08/19 07:28:35;;;;;;;11.50;8.90;;;22.50;99.90;;;;;;5106746;27;20057;-60
2023/08/19 07:31:03;;;;;;;15.38;9.07;;;22.50;99.90;;;;;;5105397;27;20639;-59
2023/08/19 07:33:29;;;;;;;12.35;8.85;;;22.60;99.90;;;;;;5105826;28;20509;-60
2023/08/19 07:35:55;;;;;;;11.80;8.48;;;22.60;99.90;;;;;;5105895;28;20087;-60
2023/08/19 07:38:22;;;;;;;11.10;8.60;;;22.70;99.90;;;;;;5107283;27;20633;-58
2023/08/19 07:40:48;;;;;;;12.70;9.15;;;22.70;99.90;;;;;;5089633;28;20086;-59
2023/08/19 07:43:14;;;;;;;13.20;8.82;;;22.70;99.90;;;;;;5089830;28;20581;-60
2023/08/19 07:45:40;;;;;;;10.18;8.50;;;22.70;99.90;;;;;;5091278;27;20039;-60
2023/08/19 07:48:06;;;;;;;11.07;8.50;;;22.70;99.90;;;;;;5104336;27;20046;-60
2023/08/19 07:50:32;;;;;;;12.65;8.40;;;22.80;99.90;;;;;;5108386;27;20123;-60
2023/08/19 07:52:58;;;;;;;13.25;8.27;;;22.80;99.90;;;;;;5104717;28;20040;-60
2023/08/19 07:55:24;;;;;;;11.93;8.00;;;22.90;99.90;;;;;;5105143;28;20103;-58
2023/08/19 07:57:49;;;;;;;10.73;8.18;;;22.90;99.90;;;;;;5105409;28;20042;-60
2023/08/19 08:00:15;;;;;;;10.50;8.48;;;23.00;99.90;;;;;;5105495;28;20051;-58
2023/08/19 08:02:41;;;;;;;11.00;8.23;;;23.00;99.90;;;;;;5088820;28;20048;-60
2023/08/19 08:05:07;;;;;;;12.07;8.30;;;23.00;99.90;;;;;;5104622;28;20044;-59
2023/08/19 08:07:33;;;;;;;11.20;8.35;;;23.00;99.90;;;;;;5104777;27;20042;-60
2023/08/19 08:09:58;;;;;;;10.38;8.27;;;23.10;99.90;;;;;;5106053;27;20118;-59
2023/08/19 08:12:24;;;;;;;8.98;7.60;;;23.10;99.90;;;;;;5105521;27;20043;-59
2023/08/19 08:14:50;;;;;;;8.40;7.18;;;23.10;99.90;;;;;;5105144;27;20032;-60
2023/08/19 08:17:15;;;;;;;10.32;7.75;;;23.10;99.90;;;;;;5104718;28;20186;-60
2023/08/19 08:19:41;;;;;;;9.90;7.28;;;23.10;99.90;;;;;;5103498;28;20119;-60
2023/08/19 08:22:07;;;;;;;10.20;7.38;;;23.20;99.90;;;;;;5104907;28;20051;-58
2023/08/19 08:24:33;;;;;;;9.65;7.70;;;23.20;99.90;;;;;;5103726;28;20046;-60
2023/08/19 08:26:59;;;;;;;9.80;7.57;;;23.30;99.90;;;;;;5105257;28;20043;-59
2023/08/19 08:29:25;;;;;;;9.38;7.35;;;23.30;99.90;;;;;;5103606;28;20044;-59
2023/08/19 08:31:50;;;;;;;8.80;7.68;;;23.40;99.90;;;;;;5105147;28;20152;-59
2023/08/19 08:34:16;;;;;;;12.45;6.95;;;23.40;99.90;;;;;;5103375;28;20047;-59
2023/08/19 08:36:42;;;;;;;10.15;7.03;;;23.50;99.90;;;;;;5105379;28;20036;-58
2023/08/19 08:39:08;;;;;;;13.93;6.85;;;23.50;99.90;;;;;;5105424;28;20189;-58
2023/08/19 08:41:38;;;;;;;8.30;6.38;;;23.60;99.90;;;;;;5105674;28;20048;-59
2023/08/19 08:44:09;;;;;;;8.10;6.57;;;23.70;99.90;;;;;;5105318;28;20040;-60
2023/08/19 08:46:36;;;;;;;10.02;6.60;;;23.70;99.90;;;;;;5105243;28;20050;-56
2023/08/19 08:49:05;;;;;;;8.65;7.10;;;23.80;99.90;;;;;;5106733;28;20052;-60
2023/08/19 08:51:31;;;;;;;9.38;6.68;;;23.90;99.90;;;;;;5102662;28;20032;-60
2023/08/19 08:53:56;;;;;;;10.27;6.50;;;24.00;99.90;;;;;;5107189;28;20093;-59
2023/08/19 08:56:26;;;;;;;8.13;6.25;;;24.10;99.90;;;;;;5087118;28;20101;-59
2023/08/19 08:58:51;;;;;;;11.07;6.65;;;24.10;99.90;;;;;;5104142;28;20043;-59
2023/08/19 09:01:19;;;;;;;8.75;6.05;;;24.30;99.90;;;;;;5107075;28;20079;-60
2023/08/19 09:03:46;;;;;;;11.32;7.00;;;24.40;99.90;;;;;;5106341;28;20142;-60
2023/08/19 09:06:16;;;;;;;9.45;6.50;;;24.50;99.90;;;;;;5107626;28;20043;-59
2023/08/19 09:08:57;;;;;;;8.27;6.35;;;24.70;99.90;;;;;;5106009;28;20478;-59
2023/08/19 09:11:27;;;;;;;8.15;6.25;;;24.90;99.90;;;;;;5104981;28;20062;-60
2023/08/19 09:14:11;;;;;;;8.48;6.60;;;25.00;99.90;;;;;;5105313;28;20047;-59
2023/08/19 09:16:37;;;;;;;7.07;5.80;;;25.20;99.90;;;;;;5105411;28;20043;-60
2023/08/19 09:19:03;;;;;;;7.35;5.93;;;25.30;99.90;;;;;;5106153;28;20048;-59
2023/08/19 09:21:29;;;;;;;9.13;5.55;;;25.50;99.90;;;;;;5105947;28;20069;-59
2023/08/19 09:23:58;;;;;;;7.65;5.93;;;25.60;99.90;;;;;;5109328;28;20079;-58
2023/08/19 09:26:25;;;;;;;10.20;5.40;;;25.70;99.90;;;;;;5108319;28;20140;-59
2023/08/19 09:28:56;;;;;;;10.23;6.07;;;25.70;99.90;;;;;;5110874;28;20035;-60
2023/08/19 09:31:24;;;;;;;7.20;5.40;;;25.70;99.90;;;;;;5110030;28;20043;-60
2023/08/19 09:33:52;;;;;;;7.65;5.63;;;25.60;99.90;;;;;;5096205;28;20051;-60
2023/08/19 09:36:23;;;;;;;9.85;5.55;;;25.70;99.90;;;;;;5110100;28;20058;-58
2023/08/19 09:38:56;;;;;;;8.68;5.60;;;25.70;99.90;;;;;;5093315;28;20063;-59
2023/08/19 09:41:30;;;;;;;12.32;5.43;;;25.80;99.90;;;;;;5108217;28;20048;-60
2023/08/19 09:43:57;;;;;;;10.23;5.60;;;25.90;99.90;;;;;;5109780;28;20048;-60
2023/08/19 09:46:33;;;;;;;9.18;5.68;;;26.10;99.90;;;;;;5108012;28;20036;-60
2023/08/19 09:48:59;;;;;;;9.27;5.30;;;26.40;99.90;;;;;;5091934;28;20051;-59
2023/08/19 09:51:29;;;;;;;8.55;5.07;;;26.70;99.90;;;;;;5088846;28;20035;-57
2023/08/19 09:53:55;;;;;;;8.07;4.93;;;27.00;99.90;;;;;;5092932;28;20118;-60
2023/08/19 09:56:26;;;;;;;11.23;5.55;;;27.20;99.90;;;;;;5107420;28;20097;-60
2023/08/19 09:58:57;;;;;;;10.77;5.47;;;27.40;99.90;;;;;;5111610;27;20032;-58
2023/08/19 10:01:25;;;;;;;7.72;5.20;;;27.40;99.90;;;;;;5115527;27;20079;-58
2023/08/19 10:03:51;;;;;;;9.30;5.22;;;27.30;99.90;;;;;;5114721;27;20039;-60
2023/08/19 10:06:23;;;;;;;6.95;4.82;;;27.20;99.90;;;;;;5116336;28;20111;-59
2023/08/19 10:08:53;;;;;;;7.47;5.28;;;27.10;99.90;;;;;;5095930;28;20039;-60
2023/08/19 10:11:20;;;;;;;10.30;5.32;;;26.90;99.90;;;;;;5115536;27;20666;-57
2023/08/19 10:13:47;;;;;;;10.70;5.10;;;26.90;99.90;;;;;;5096248;28;20572;-59
2023/08/19 10:16:14;;;;;;;8.07;5.32;;;26.80;99.90;;;;;;5116198;27;20062;-60
2023/08/19 10:18:44;;;;;;;10.63;5.28;;;26.70;99.90;;;;;;5116340;28;20040;-60
2023/08/19 10:21:14;;;;;;;7.57;5.30;;;26.60;99.90;;;;;;5116910;27;20066;-60
2023/08/19 10:23:44;;;;;;;9.55;4.93;;;26.50;99.90;;;;;;5115160;27;20065;-59
2023/08/19 10:26:10;;;;;;;8.07;5.53;;;26.40;99.90;;;;;;5114130;28;20522;-60
2023/08/19 10:28:36;;;;;;;9.05;5.25;;;26.30;99.90;;;;;;5115843;28;20039;-60
2023/08/19 10:31:10;;;;;;;8.05;6.10;;;26.20;99.90;;;;;;5096392;28;20036;-60
2023/08/19 10:33:49;;;;;;;9.73;5.72;;;26.00;99.90;;;;;;5112495;27;20043;-60
2023/08/19 10:36:19;;;;;;;8.32;6.03;;;26.00;99.90;;;;;;5116252;27;20091;-60
2023/08/19 10:38:47;;;;;;;8.93;6.07;;;25.90;99.90;;;;;;5096734;28;20032;-60
2023/08/19 10:41:36;;;;;;;11.25;6.60;;;25.90;99.90;;;;;;5097329;28;20128;-60
2023/08/19 10:44:07;;;;;;;12.32;6.57;;;25.90;99.90;;;;;;5115990;28;20035;-58
2023/08/19 10:46:38;;;;;;;10.65;6.63;;;25.90;99.90;;;;;;5114925;27;20040;-59
2023/08/19 10:49:15;;;;;;;9.07;6.78;;;25.90;99.90;;;;;;5119521;27;20044;-60
2023/08/19 10:52:02;;;;;;;10.57;6.78;;;26.00;99.90;;;;;;5116226;27;20028;-57
2023/08/19 10:54:38;;;;;;;9.07;6.30;;;26.10;99.90;;;;;;5117207;27;20413;-60
2023/08/19 10:57:16;;;;;;;14.15;6.63;;;26.20;99.90;;;;;;5098164;28;20052;-58
2023/08/19 10:59:47;;;;;;;11.18;7.03;;;26.30;99.90;;;;;;5115288;27;20040;-61
2023/08/19 11:02:13;;;;;;;11.40;6.63;;;26.40;99.90;;;;;;5113229;27;20035;-60
2023/08/19 11:04:45;;;;;;;18.23;7.45;;;26.40;99.90;;;;;;5112593;27;20065;-59
2023/08/19 11:07:11;;;;;;;9.70;7.20;;;26.40;99.90;;;;;;5114566;27;20092;-60
2023/08/19 11:09:42;;;;;;;14.38;7.53;;;26.40;99.90;;;;;;5113174;28;20124;-58
2023/08/19 11:12:08;;;;;;;10.48;7.93;;;26.20;99.90;;;;;;5113898;28;20052;-59
2023/08/19 11:14:34;;;;;;;11.90;8.30;;;26.10;99.90;;;;;;5114907;28;20039;-60
2023/08/19 11:17:00;;;;;;;15.55;8.10;;;26.00;99.90;;;;;;5113909;27;20071;-59
2023/08/19 11:19:25;;;;;;;15.80;8.07;;;26.00;99.90;;;;;;5112508;28;20032;-60
2023/08/19 11:21:51;;;;;;;15.40;8.40;;;26.00;99.90;;;;;;5077517;28;20111;-60
2023/08/19 11:24:17;;;;;;;11.95;8.02;;;26.00;99.90;;;;;;5096298;28;20120;-60
2023/08/19 11:26:45;;;;;;;12.77;8.10;;;26.20;99.90;;;;;;5110060;28;20094;-60
2023/08/19 11:29:11;;;;;;;14.65;8.35;;;26.50;99.90;;;;;;5110234;27;20040;-57
2023/08/19 11:31:38;;;;;;;13.27;8.48;;;26.80;99.90;;;;;;5092696;28;20040;-60
2023/08/19 11:34:08;;;;;;;11.80;8.88;;;27.10;99.90;;;;;;5110453;28;20079;-60
2023/08/19 11:36:39;;;;;;;12.73;8.80;;;27.50;99.90;;;;;;5109268;27;20482;-58
2023/08/19 11:39:06;;;;;;;15.30;9.32;;;27.80;99.90;;;;;;5106693;27;20035;-60
2023/08/19 11:41:33;;;;;;;13.27;9.98;;;28.00;99.90;;;;;;5105279;28;20094;-60
2023/08/19 11:44:02;;;;;;;15.73;10.05;;;28.30;99.90;;;;;;5105907;28;20048;-57
2023/08/19 11:46:29;;;;;;;18.80;10.80;;;28.40;99.90;;;;;;5107869;27;20043;-60
2023/08/19 11:49:05;;;;;;;14.65;11.38;;;28.50;99.90;;;;;;5086213;28;20039;-60
2023/08/19 11:51:30;;;;;;;15.70;11.45;;;28.50;99.90;;;;;;5105818;28;20091;-59
2023/08/19 11:54:02;;;;;;;14.35;10.88;;;28.50;99.90;;;;;;5105761;28;20536;-58
2023/08/19 11:56:29;;;;;;;;;;;28.40;99.90;;;;;;5108600;28;20032;-59
2023/08/19 11:58:54;;;;;;;19.15;12.93;;;28.40;99.90;;;;;;5107378;28;19920;-60
2023/08/19 12:01:22;;;;;;;17.42;13.77;;;28.30;99.90;;;;;;5108792;27;20043;-59
2023/08/19 12:03:49;;;;;;;18.20;13.63;;;28.30;99.90;;;;;;5108223;28;20130;-59
2023/08/19 12:06:16;;;;;;;18.60;14.25;;;28.20;99.90;;;;;;5109333;28;20035;-59
2023/08/19 12:08:43;;;;;;;20.10;13.98;;;28.20;99.90;;;;;;5107549;28;20497;-60
2023/08/19 12:11:11;;;;;;;23.73;15.82;;;28.20;99.90;;;;;;5088212;28;20069;-60
2023/08/19 12:13:38;;;;;;;21.23;14.70;;;28.10;99.90;;;;;;5107619;28;20052;-60
2023/08/19 12:16:05;;;;;;;19.33;14.77;;;28.00;99.90;;;;;;5108616;28;20105;-60
2023/08/19 12:18:35;;;;;;;21.92;15.80;;;27.90;99.90;;;;;;5092218;28;20040;-60
2023/08/19 12:21:04;;;;;;;21.75;17.33;;;27.80;99.90;;;;;;5106748;28;20044;-60
2023/08/19 12:23:30;;;;;;;25.05;20.00;;;27.70;99.90;;;;;;5088288;28;20028;-59
2023/08/19 12:25:58;;;;;;;31.27;23.27;;;27.50;99.90;;;;;;5089901;28;20093;-59
2023/08/19 12:28:25;;;;;;;33.13;25.17;;;27.40;99.90;;;;;;5109474;28;20527;-60
2023/08/19 12:30:52;;;;;;;30.45;25.60;;;27.20;99.90;;;;;;5110043;28;20042;-60
2023/08/19 12:33:19;;;;;;;39.22;29.02;;;27.10;99.90;;;;;;5110436;28;20819;-60
2023/08/19 12:35:46;;;;;;;41.53;30.50;;;26.90;99.90;;;;;;5108984;27;20043;-60